Aeroporto :
LOGIN :

Iscrizione | Disclaimer

   EN    FR    IT 

 










Sommario :    VFR   VFR Marginale   IFR   IFR Intensivo   IFR Molto Intensivo
Visibilità : 
Base nubi : 
>= 8 km
>= 3000ft
5 / 8 km
1000 / 3000 ft
1500m / 5 km
500 / 1000 ft
800 / 1500m
200 / 500 ft
< 800m
< 200 ft
Simboli :   Temporali  Nebbia  Neve Forte  Precipitazioni Forti  Vento > 20 kt
SIGMETs :   Varie  Temporali  Ghiacco  Turbolenza  Onda orograficha  Ceneri Vulcaniche






- Altitudine del aeroporto : 495 ft
- Codice IATA : BUD


LHBP - Budapest Ferihegy

ULTIMO METAR :
  • 250130Z 34003KT 300V020 CAVOK 17/12 Q1016 NOSIG

METARs OBSOLETI :
  • 250100Z 03003KT 360V060 CAVOK 18/12 Q1017 NOSIG
  • 250030Z 02004KT 340V080 CAVOK 19/12 Q1017 NOSIG
  • 250000Z 06004KT 310V100 CAVOK 20/12 Q1017 NOSIG
  • 242330Z 09007KT 060V120 CAVOK 20/12 Q1017 NOSIG
  • 242300Z 08008KT CAVOK 21/12 Q1017 NOSIG
  • 242230Z 09010KT CAVOK 21/12 Q1017 NOSIG
  • 242200Z 09009KT CAVOK 21/12 Q1017 NOSIG
  • 242130Z 09009KT CAVOK 21/13 Q1017 NOSIG
  • 242100Z 08009KT CAVOK 22/13 Q1016 NOSIG

TAF TAF LHBP
Valido dal 25 a 00 ore il 26 a 00 ore UTC


242315Z 2500/2524 07009KT CAVOK
PROB40
TEMPO 2520/2524 VRB14G26KT 4000 TSRA SHRA SCT050CB BKN090



MetMap, La meteo Aeronautica in un colpo d'occhio ! - Copyright ORBIFLY Dicembre 2007 - Disclaimer

ORBIFLY MET'MAP TEAM :

Programmazione e sviluppo : Alexandra Zaïnal
Concezione : Baudouin d'Aumeries
Supporto tecnico e logistico : Manuel Goepfert
Aiuto : Marc-Olivier Méhu
Aiuto per la traduzione : Arnaldo La Scala




FONTI E CREDITI :

   NOAA